Terminal Aerodrome Forecast
Issued by NWS Green Bay, WI

Home | Current Version | Previous Version | Text Only | Print | Product List | Glossary Off
Versions: 1 2 3 4 5 6 7 8 9 10 11 12 13 14 15 16 17

000
FTUS43 KGRB 261738
TAFGRB
TAF
KGRB 261738Z 2618/2718 15004KT P6SM SCT028 BKN100
     FM270800 22003KT 6SM BR SCT003 SCT080
      TEMPO 2708/2712 2SM BR OVC003
     FM271300 22004KT P6SM SCT005 SCT090
     FM271500 22006KT P6SM SCT100=

USA.gov is the U.S. government's official web portal to all federal, state and local government web resources and services.